الصفحة الرئيسية
METAR-TAF:

METAR-TAF

مطار :

مطار دبي الدولي

إمارة دبي, الإمارات العربية المتحدة

دائرة عرض: 25-15-10N, خط طول: 055-21-52E, ارتفاع: 8 متر

مراقبة الطقس الحالي

تاريخ ووقت الإصدار 12ساعات و 26 دقيقة قبل الساعة 05:00UTC
ريح 9 عقدة من الشرق/الجنوب الشرقي
درجة الحرارة 35°درجة مئوية
الرطوبة 60%
ضغط 1000 hPa
الرؤية: 8000 متر

METAR: OMDB 210500Z 11009KT 8000 NSC 35/26 Q1000 NOSIG

زمن: 21:26 (17:26 UTC)

توقعات

تاريخ ووقت الإصدار 12ساعات و 29 دقيقة قبل الساعة 04:57UTC
التوقعات صالحة من21 الساعة 06 UTC إلى 22 الساعة 12 UTC
ريح 8 عقدة من الشرق
الرؤية: 8000 متر
أصبح
من 21 الساعة 08 UTC إلى 21 الساعة 10 UTC
ريح 13 عقدة من الشمال/الشمال الغربي
أصبح
من 21 الساعة 19 UTC إلى 21 الساعة 21 UTC
ريح 5 عقدة من الشرق/الشمال الشرقي
مؤقت
من 22 الساعة 03 UTC إلى 22 الساعة 06 UTC
ريح 10 عقدة من الشرق/الجنوب الشرقي
أصبح
من 22 الساعة 08 UTC إلى 22 الساعة 10 UTC
ريح 12 عقدة من الشمال/الشمال الغربي

TAF: OMDB 210457Z 2106/2212 10008KT 8000 NSC BECMG 2108/2110 34013KT BECMG 2119/2121 06005KT TEMPO 2203/2206 12010KT BECMG 2208/2210 33012KT

أرصاد الطقس والتوقعات من أكثر من 4000 مطار (تقارير الطقس للمطار METAR والتنبؤ بالطقس بالمطارTAF).

المحطات المتاحة هي النقط الصفراء والحمراء على الخريطة.

حرك المؤشر فوق النقطة لمعرفة اسم المحطة.

ثم انقر لمعرفة أرصاد وتوقعات الطقس.

لتغيير الخارطة: اضغط على الأزرار الخضراء مع رمز الصليب الأسود للتكبير. على الزر الأخضر مع شرطة للتصغير، أو على الأسهم الخضراء للخرائط المجاورة.


METAR-TAF: